createdAt,value
2023-09-10T00:01:29.773Z,2.22
2023-09-10T00:03:57.937Z,3.17
2023-09-10T00:06:26.027Z,3.05
2023-09-10T00:08:55.015Z,2.42
2023-09-10T00:11:23.014Z,2.60
2023-09-10T00:13:53.627Z,2.90
2023-09-10T00:16:21.955Z,2.50
2023-09-10T00:18:50.216Z,3.05
2023-09-10T00:21:18.284Z,3.10
2023-09-10T00:23:47.094Z,3.13
2023-09-10T00:26:15.157Z,2.65
2023-09-10T00:28:43.496Z,3.17
2023-09-10T00:31:12.247Z,2.92
2023-09-10T00:33:40.505Z,2.58
2023-09-10T00:36:08.870Z,2.65
2023-09-10T00:38:37.285Z,2.80
2023-09-10T00:41:06.966Z,2.75
2023-09-10T00:43:35.546Z,3.00
2023-09-10T00:46:04.625Z,3.10
2023-09-10T00:48:33.516Z,3.13
2023-09-10T00:51:02.423Z,2.78
2023-09-10T00:53:30.984Z,3.05
2023-09-10T00:55:59.358Z,2.95
2023-09-10T00:58:28.005Z,3.28
2023-09-10T01:00:56.332Z,2.65
2023-09-10T01:03:29.368Z,2.70
2023-09-10T01:05:57.824Z,2.92
2023-09-10T01:08:26.429Z,2.75
2023-09-10T01:11:17.268Z,3.40
2023-09-10T01:14:04.771Z,2.92
2023-09-10T01:16:53.152Z,2.67
2023-09-10T01:20:11.985Z,2.20
2023-09-10T01:22:57.986Z,3.15
2023-09-10T01:25:26.519Z,3.35
2023-09-10T01:27:54.815Z,3.25
2023-09-10T01:30:25.929Z,2.80
2023-09-10T01:33:03.819Z,2.42
2023-09-10T01:35:36.998Z,2.95
2023-09-10T01:38:28.112Z,3.60
2023-09-10T01:41:10.160Z,3.00
2023-09-10T01:43:39.806Z,3.22
2023-09-10T01:46:09.661Z,2.90
2023-09-10T01:48:38.756Z,2.75
2023-09-10T01:51:07.780Z,3.15
2023-09-10T01:53:39.397Z,3.30
2023-09-10T01:56:07.593Z,2.90
2023-09-10T01:58:36.126Z,2.58
2023-09-10T02:01:04.345Z,2.35
2023-09-10T02:03:33.697Z,2.30
2023-09-10T02:06:03.678Z,2.33
2023-09-10T02:08:33.405Z,2.40
2023-09-10T02:11:09.824Z,2.47
2023-09-10T02:13:37.997Z,2.58
2023-09-10T02:16:06.322Z,2.60
2023-09-10T02:18:35.116Z,3.13
2023-09-10T02:21:13.834Z,2.80
2023-09-10T02:23:43.433Z,3.85
2023-09-10T02:26:12.338Z,5.45
2023-09-10T02:28:41.099Z,3.20
2023-09-10T02:31:11.207Z,3.90
2023-09-10T02:33:39.488Z,3.17
2023-09-10T02:36:07.762Z,3.17
2023-09-10T02:38:36.887Z,3.15
2023-09-10T02:41:05.663Z,2.88
2023-09-10T02:43:34.024Z,3.50
2023-09-10T02:46:02.806Z,2.65
2023-09-10T02:48:31.239Z,2.97
2023-09-10T02:51:00.039Z,3.10
2023-09-10T02:53:28.358Z,2.70
2023-09-10T02:56:04.665Z,3.03
2023-09-10T02:58:33.048Z,3.53
2023-09-10T03:01:07.630Z,2.75
2023-09-10T03:03:35.950Z,3.25
2023-09-10T03:06:04.308Z,3.13
2023-09-10T03:08:32.466Z,3.67
2023-09-10T03:11:04.730Z,3.55
2023-09-10T03:13:33.376Z,3.75
2023-09-10T03:16:01.725Z,3.85
2023-09-10T03:18:30.086Z,3.10
2023-09-10T03:20:58.194Z,2.85
2023-09-10T03:23:26.920Z,4.20
2023-09-10T03:25:55.015Z,4.13
2023-09-10T03:28:25.930Z,3.78
2023-09-10T03:30:58.806Z,3.08
2023-09-10T03:33:29.159Z,3.67
2023-09-10T03:35:57.304Z,3.08
2023-09-10T03:38:25.726Z,3.40
2023-09-10T03:40:54.577Z,5.80
2023-09-10T03:43:24.896Z,6.55
2023-09-10T03:45:53.276Z,7.88
2023-09-10T03:48:21.457Z,7.15
2023-09-10T03:50:49.610Z,5.55
2023-09-10T03:53:17.745Z,3.25
2023-09-10T03:55:46.637Z,4.28
2023-09-10T03:58:15.078Z,3.17
2023-09-10T04:00:43.493Z,3.72
2023-09-10T04:03:12.553Z,3.75
2023-09-10T04:05:41.056Z,3.35
2023-09-10T04:08:09.205Z,4.22
2023-09-10T04:10:37.374Z,2.95
2023-09-10T04:13:06.280Z,3.60
2023-09-10T04:15:34.706Z,3.05
2023-09-10T04:18:02.764Z,3.53
2023-09-10T04:20:31.707Z,4.38
2023-09-10T04:23:00.122Z,4.15
2023-09-10T04:25:28.430Z,3.47
2023-09-10T04:27:57.263Z,3.75
2023-09-10T04:30:25.642Z,4.20
2023-09-10T04:32:56.851Z,4.10
2023-09-10T04:35:25.447Z,3.53
2023-09-10T04:37:56.058Z,3.53
2023-09-10T04:40:24.387Z,3.60
2023-09-10T04:42:52.447Z,4.47
2023-09-10T04:45:20.821Z,3.58
2023-09-10T04:47:48.920Z,3.80
2023-09-10T04:50:17.173Z,4.40
2023-09-10T04:52:45.532Z,4.47
2023-09-10T04:55:13.789Z,4.05
2023-09-10T04:57:42.104Z,3.75
2023-09-10T05:00:10.753Z,3.38
2023-09-10T05:02:39.144Z,3.83
2023-09-10T05:05:08.349Z,3.00
2023-09-10T05:07:36.683Z,3.10
2023-09-10T05:10:04.970Z,3.42
2023-09-10T05:12:33.273Z,3.30
2023-09-10T05:15:01.283Z,3.00
2023-09-10T05:17:30.039Z,3.17
2023-09-10T05:19:58.234Z,3.58
2023-09-10T05:22:26.772Z,3.30
2023-09-10T05:24:55.455Z,3.30
2023-09-10T05:27:23.764Z,3.70
2023-09-10T05:29:52.071Z,3.65
2023-09-10T05:32:20.227Z,3.70
2023-09-10T05:34:48.476Z,3.10
2023-09-10T05:37:17.170Z,4.00
2023-09-10T05:39:45.173Z,3.67
2023-09-10T05:42:13.221Z,3.80
2023-09-10T05:44:41.464Z,3.90
2023-09-10T05:47:09.591Z,3.80
2023-09-10T05:49:37.730Z,4.30
2023-09-10T05:52:09.137Z,3.42
2023-09-10T05:54:37.433Z,3.13
2023-09-10T05:57:05.547Z,3.75
2023-09-10T05:59:36.186Z,4.05
2023-09-10T06:02:04.903Z,3.15
2023-09-10T06:04:33.103Z,3.15
2023-09-10T06:07:04.487Z,4.22
2023-09-10T06:09:33.283Z,3.42
2023-09-10T06:12:02.325Z,3.90
2023-09-10T06:14:31.222Z,3.50
2023-09-10T06:16:59.562Z,3.35
2023-09-10T06:19:27.750Z,3.55
2023-09-10T06:21:56.127Z,3.60
2023-09-10T06:24:24.790Z,4.20
2023-09-10T06:26:54.643Z,3.80
2023-09-10T06:29:24.548Z,3.63
2023-09-10T06:31:53.972Z,3.78
2023-09-10T06:34:22.290Z,4.22
2023-09-10T06:36:51.035Z,3.97
2023-09-10T06:39:19.408Z,3.72
2023-09-10T06:41:48.789Z,4.05
2023-09-10T06:44:17.745Z,3.53
2023-09-10T06:46:49.083Z,3.35
2023-09-10T06:49:17.157Z,4.60
2023-09-10T06:51:45.167Z,4.20
2023-09-10T06:54:13.211Z,3.95
2023-09-10T06:56:41.516Z,3.88
2023-09-10T06:59:12.345Z,3.17
2023-09-10T07:01:43.386Z,3.72
2023-09-10T07:04:19.743Z,4.63
2023-09-10T07:06:49.459Z,4.25
2023-09-10T07:09:24.791Z,3.85
2023-09-10T07:11:54.385Z,3.65
2023-09-10T07:14:23.955Z,3.63
2023-09-10T07:16:52.358Z,3.25
2023-09-10T07:19:23.311Z,4.43
2023-09-10T07:21:51.609Z,4.25
2023-09-10T07:24:20.376Z,4.05
2023-09-10T07:26:48.724Z,3.40
2023-09-10T07:29:17.704Z,3.97
2023-09-10T07:31:46.657Z,4.18
2023-09-10T07:34:17.943Z,4.47
2023-09-10T07:36:46.281Z,4.43
2023-09-10T07:39:15.517Z,4.65
2023-09-10T07:41:43.809Z,4.05
2023-09-10T07:44:12.019Z,3.40
2023-09-10T07:46:40.293Z,4.53
2023-09-10T07:49:08.569Z,5.03
2023-09-10T07:51:37.333Z,4.32
2023-09-10T07:54:05.798Z,3.88
2023-09-10T07:56:34.074Z,4.20
2023-09-10T07:59:02.220Z,3.97
2023-09-10T08:01:30.578Z,3.47
2023-09-10T08:03:59.426Z,3.83
2023-09-10T08:06:28.839Z,4.32
2023-09-10T08:08:56.868Z,5.07
2023-09-10T08:11:25.315Z,3.88
2023-09-10T08:13:54.561Z,5.13
2023-09-10T08:16:23.167Z,4.10
2023-09-10T08:18:51.722Z,4.68
2023-09-10T08:21:19.826Z,4.38
2023-09-10T08:23:47.933Z,5.10
2023-09-10T08:26:16.162Z,4.10
2023-09-10T08:28:44.486Z,4.30
2023-09-10T08:31:12.837Z,3.85
2023-09-10T08:33:41.564Z,3.97
2023-09-10T08:36:09.625Z,4.00
2023-09-10T08:38:38.685Z,4.35
2023-09-10T08:41:20.312Z,4.25
2023-09-10T08:43:56.459Z,3.60
2023-09-10T08:46:27.109Z,4.50
2023-09-10T08:48:56.181Z,4.47
2023-09-10T08:51:24.817Z,5.00
2023-09-10T08:54:00.206Z,4.03
2023-09-10T08:56:29.720Z,3.70
2023-09-10T08:59:04.780Z,3.22
2023-09-10T09:01:36.808Z,3.58
2023-09-10T09:04:05.633Z,4.82
2023-09-10T09:06:38.527Z,3.72
2023-09-10T09:09:08.267Z,3.28
2023-09-10T09:11:41.608Z,3.35
2023-09-10T09:14:11.690Z,4.00
2023-09-10T09:16:42.021Z,3.92
2023-09-10T09:19:13.824Z,3.80
2023-09-10T09:21:43.438Z,3.10
2023-09-10T09:24:14.482Z,5.35
2023-09-10T09:26:43.075Z,3.85
2023-09-10T09:29:12.732Z,3.78
2023-09-10T09:31:40.800Z,3.47
2023-09-10T09:34:08.782Z,4.20
2023-09-10T09:36:41.054Z,4.13
2023-09-10T09:39:09.368Z,3.95
2023-09-10T09:41:37.836Z,3.78
2023-09-10T09:44:06.444Z,3.97
2023-09-10T09:46:35.927Z,4.25
2023-09-10T09:49:04.665Z,3.80
2023-09-10T09:51:33.241Z,4.65
2023-09-10T09:54:04.963Z,5.63
2023-09-10T09:56:33.121Z,4.60
2023-09-10T09:59:02.032Z,4.38
2023-09-10T10:01:31.940Z,4.07
2023-09-10T10:04:00.259Z,4.03
2023-09-10T10:06:29.208Z,4.18
2023-09-10T10:08:59.647Z,4.63
2023-09-10T10:11:33.437Z,3.70
2023-09-10T10:14:02.613Z,4.47
2023-09-10T10:16:32.066Z,4.50
2023-09-10T10:19:02.990Z,5.47
2023-09-10T10:21:34.308Z,3.55
2023-09-10T10:24:04.291Z,5.53
2023-09-10T10:26:33.076Z,4.68
2023-09-10T10:29:02.470Z,4.00
2023-09-10T10:31:34.094Z,3.75
2023-09-10T10:34:11.237Z,3.95
2023-09-10T10:37:17.879Z,4.20
2023-09-10T10:40:10.607Z,3.70
2023-09-10T10:42:52.242Z,4.32
2023-09-10T10:45:21.153Z,3.83
2023-09-10T10:47:50.930Z,4.68
2023-09-10T10:50:33.171Z,4.30
2023-09-10T10:53:07.618Z,3.70
2023-09-10T10:55:36.292Z,3.95
2023-09-10T10:58:05.092Z,4.85
2023-09-10T11:00:33.845Z,3.92
2023-09-10T11:03:18.766Z,4.25
2023-09-10T11:05:55.915Z,4.60
2023-09-10T11:08:43.753Z,5.55
2023-09-10T11:11:32.614Z,5.13
2023-09-10T11:14:05.591Z,5.68
2023-09-10T11:16:35.459Z,6.75
2023-09-10T11:19:05.569Z,4.50
2023-09-10T11:21:58.463Z,4.72
2023-09-10T11:24:27.087Z,4.63
2023-09-10T11:27:22.095Z,4.18
2023-09-10T11:30:06.594Z,4.53
2023-09-10T11:32:35.061Z,4.93
2023-09-10T11:35:29.279Z,4.78
2023-09-10T11:37:58.832Z,3.88
2023-09-10T11:40:27.791Z,4.72
2023-09-10T11:42:56.263Z,4.72
2023-09-10T11:45:24.530Z,4.78
2023-09-10T11:47:53.037Z,4.60
2023-09-10T11:50:25.841Z,4.72
2023-09-10T11:52:54.112Z,5.20
2023-09-10T11:55:22.308Z,4.32
2023-09-10T11:57:51.731Z,5.93
2023-09-10T12:00:20.124Z,4.55
2023-09-10T12:02:48.936Z,3.78
2023-09-10T12:05:17.061Z,5.03
2023-09-10T12:07:45.809Z,5.43
2023-09-10T12:10:13.956Z,4.05
2023-09-10T12:12:45.437Z,4.13
2023-09-10T12:15:14.362Z,4.93
2023-09-10T12:17:46.124Z,4.95
2023-09-10T12:20:15.010Z,5.13
2023-09-10T12:22:43.893Z,5.05
2023-09-10T12:25:13.346Z,4.13
2023-09-10T12:27:41.415Z,4.85
2023-09-10T12:30:10.155Z,3.65
2023-09-10T12:32:39.048Z,4.30
2023-09-10T12:35:07.869Z,4.75
2023-09-10T12:37:36.124Z,4.93
2023-09-10T12:40:04.505Z,3.50
2023-09-10T12:42:32.639Z,4.10
2023-09-10T12:45:01.067Z,4.65
2023-09-10T12:47:29.402Z,3.65
2023-09-10T12:50:01.272Z,3.70
2023-09-10T12:52:32.642Z,4.13
2023-09-10T12:55:01.117Z,3.42
2023-09-10T12:57:29.169Z,3.92
2023-09-10T12:59:57.482Z,3.97
2023-09-10T13:02:26.690Z,4.70
2023-09-10T13:04:56.927Z,4.00
2023-09-10T13:07:25.764Z,4.03
2023-09-10T13:09:54.258Z,4.10
2023-09-10T13:12:22.917Z,3.92
2023-09-10T13:14:51.165Z,3.90
2023-09-10T13:17:19.910Z,3.63
2023-09-10T13:19:49.138Z,4.85
2023-09-10T13:22:17.213Z,4.68
2023-09-10T13:24:45.936Z,5.32
2023-09-10T13:27:14.316Z,4.35
2023-09-10T13:29:43.543Z,5.15
2023-09-10T13:32:11.936Z,4.35
2023-09-10T13:34:40.831Z,4.28
2023-09-10T13:37:09.140Z,4.70
2023-09-10T13:39:38.699Z,3.78
2023-09-10T13:42:08.043Z,4.47
2023-09-10T13:44:36.257Z,4.00
2023-09-10T13:47:04.516Z,4.75
2023-09-10T13:49:32.875Z,4.35
2023-09-10T13:52:01.157Z,4.65
2023-09-10T13:54:29.161Z,3.83
2023-09-10T13:56:57.925Z,4.43
2023-09-10T13:59:26.019Z,4.43
2023-09-10T14:01:54.772Z,4.50
2023-09-10T14:04:23.431Z,6.35
2023-09-10T14:06:52.729Z,4.82
2023-09-10T14:09:20.733Z,3.92
2023-09-10T14:11:48.992Z,4.82
2023-09-10T14:14:17.140Z,4.97
2023-09-10T14:16:45.534Z,3.97
2023-09-10T14:19:13.945Z,3.97
2023-09-10T14:21:42.062Z,4.43
2023-09-10T14:24:10.922Z,6.13
2023-09-10T14:26:39.243Z,5.40
2023-09-10T14:29:07.485Z,4.22
2023-09-10T14:31:35.845Z,4.10
2023-09-10T14:34:04.256Z,4.13
2023-09-10T14:36:32.435Z,4.10
2023-09-10T14:39:02.879Z,3.30
2023-09-10T14:41:31.314Z,3.97
2023-09-10T14:43:59.928Z,4.05
2023-09-10T14:46:28.337Z,3.90
2023-09-10T14:48:56.678Z,3.03
2023-09-10T14:51:24.705Z,3.25
2023-09-10T14:53:52.711Z,4.10
2023-09-10T14:56:21.173Z,3.30
2023-09-10T14:58:50.799Z,3.47
2023-09-10T15:01:19.143Z,3.55
2023-09-10T15:03:47.414Z,3.88
2023-09-10T15:06:15.538Z,3.65
2023-09-10T15:08:46.770Z,3.30
2023-09-10T15:11:15.092Z,2.70
2023-09-10T15:13:43.604Z,2.97
2023-09-10T15:16:11.704Z,3.08
2023-09-10T15:18:39.949Z,3.20
2023-09-10T15:21:07.986Z,3.75
2023-09-10T15:23:36.132Z,3.03
2023-09-10T15:26:04.911Z,2.95
2023-09-10T15:28:33.238Z,3.30
2023-09-10T15:31:01.308Z,3.22
2023-09-10T15:33:29.379Z,3.25
2023-09-10T15:35:57.689Z,3.63
2023-09-10T15:38:25.708Z,3.13
2023-09-10T15:40:54.451Z,3.38
2023-09-10T15:43:23.390Z,3.15
2023-09-10T15:45:54.075Z,2.75
2023-09-10T15:48:22.933Z,3.90
2023-09-10T15:50:51.232Z,3.00
2023-09-10T15:53:19.332Z,3.08
2023-09-10T15:55:47.506Z,3.28
2023-09-10T15:58:15.848Z,2.42
2023-09-10T16:00:44.330Z,2.80
2023-09-10T16:03:12.472Z,2.97
2023-09-10T16:05:41.129Z,2.92
2023-09-10T16:08:09.933Z,3.25
2023-09-10T16:10:37.970Z,2.67
2023-09-10T16:13:06.868Z,2.95
2023-09-10T16:15:35.771Z,2.70
2023-09-10T16:18:03.983Z,2.70
2023-09-10T16:20:32.524Z,2.55
2023-09-10T16:23:00.833Z,3.63
2023-09-10T16:25:29.228Z,2.95
2023-09-10T16:27:57.784Z,2.67
2023-09-10T16:30:26.137Z,2.85
2023-09-10T16:32:54.578Z,3.10
2023-09-10T16:35:22.886Z,2.90
2023-09-10T16:37:51.247Z,3.05
2023-09-10T16:40:20.093Z,3.05
2023-09-10T16:42:49.422Z,2.90
2023-09-10T16:45:18.075Z,2.90
2023-09-10T16:47:46.336Z,2.70
2023-09-10T16:50:14.695Z,2.55
2023-09-10T16:52:42.802Z,2.95
2023-09-10T16:55:11.069Z,2.60
2023-09-10T16:57:39.359Z,2.75
2023-09-10T17:00:10.046Z,2.97
2023-09-10T17:02:40.799Z,2.67
2023-09-10T17:05:10.312Z,2.67
2023-09-10T17:07:38.359Z,3.38
2023-09-10T17:10:07.164Z,3.08
2023-09-10T17:12:35.469Z,3.10
2023-09-10T17:15:03.484Z,2.42
2023-09-10T17:17:37.378Z,3.00
2023-09-10T17:20:07.227Z,3.00
2023-09-10T17:22:35.458Z,3.13
2023-09-10T17:25:04.452Z,3.05
2023-09-10T17:27:32.766Z,2.60
2023-09-10T17:30:01.550Z,2.33
2023-09-10T17:32:32.238Z,3.25
2023-09-10T17:35:00.534Z,2.80
2023-09-10T17:37:28.941Z,2.75
2023-09-10T17:39:57.186Z,2.75
2023-09-10T17:42:25.259Z,2.70
2023-09-10T17:44:53.646Z,3.20
2023-09-10T17:47:22.956Z,3.08
2023-09-10T17:50:03.490Z,2.67
2023-09-10T17:52:36.680Z,2.50
2023-09-10T17:55:04.901Z,3.92
2023-09-10T17:57:33.888Z,2.45
2023-09-10T18:00:01.985Z,2.90
2023-09-10T18:02:33.199Z,3.20
2023-09-10T18:05:01.736Z,2.85
2023-09-10T18:07:30.278Z,2.83
2023-09-10T18:09:58.662Z,2.65
2023-09-10T18:12:27.048Z,2.83
2023-09-10T18:14:55.442Z,3.15
2023-09-10T18:17:24.277Z,2.90
2023-09-10T18:19:52.429Z,2.67
2023-09-10T18:22:20.849Z,2.97
2023-09-10T18:24:49.176Z,2.75
2023-09-10T18:27:17.247Z,3.20
2023-09-10T18:29:46.209Z,3.03
2023-09-10T18:32:14.719Z,2.85
2023-09-10T18:34:42.870Z,2.58
2023-09-10T18:37:13.403Z,2.58
2023-09-10T18:39:41.983Z,2.65
2023-09-10T18:42:10.749Z,2.83
2023-09-10T18:44:39.052Z,2.70
2023-09-10T18:47:07.248Z,2.35
2023-09-10T18:49:36.354Z,2.80
2023-09-10T18:52:06.286Z,2.83
2023-09-10T18:54:34.680Z,3.03
2023-09-10T18:57:04.773Z,2.75
2023-09-10T18:59:34.186Z,2.78
2023-09-10T19:02:04.928Z,2.80
2023-09-10T19:04:33.285Z,2.50
2023-09-10T19:07:04.711Z,2.35
2023-09-10T19:09:33.000Z,2.65
2023-09-10T19:12:01.065Z,2.53
2023-09-10T19:14:29.849Z,2.47
2023-09-10T19:16:57.889Z,2.75
2023-09-10T19:19:26.482Z,2.83
2023-09-10T19:21:54.770Z,2.78
2023-09-10T19:24:26.550Z,2.03
2023-09-10T19:26:54.588Z,2.88
2023-09-10T19:29:22.651Z,2.78
2023-09-10T19:31:50.718Z,2.38
2023-09-10T19:34:18.841Z,2.75
2023-09-10T19:36:48.575Z,2.70
2023-09-10T19:39:29.334Z,2.70
2023-09-10T19:41:57.674Z,2.80
2023-09-10T19:44:25.824Z,2.42
2023-09-10T19:46:54.732Z,2.80
2023-09-10T19:49:24.453Z,2.20
2023-09-10T19:51:53.024Z,2.75
2023-09-10T19:54:21.249Z,3.28
2023-09-10T19:56:50.203Z,2.42
2023-09-10T19:59:18.463Z,2.95
2023-09-10T20:01:46.649Z,2.72
2023-09-10T20:04:15.800Z,2.55
2023-09-10T20:06:44.319Z,2.53
2023-09-10T20:09:12.657Z,2.22
2023-09-10T20:11:40.796Z,2.50
2023-09-10T20:14:10.233Z,1.98
2023-09-10T20:16:38.655Z,2.33
2023-09-10T20:19:06.779Z,2.10
2023-09-10T20:21:34.844Z,2.25
2023-09-10T20:24:03.200Z,2.13
2023-09-10T20:26:31.534Z,2.42
2023-09-10T20:28:59.750Z,2.50
2023-09-10T20:31:28.219Z,2.55
2023-09-10T20:33:57.173Z,2.25
2023-09-10T20:36:25.233Z,2.75
2023-09-10T20:38:53.603Z,2.00
2023-09-10T20:41:24.948Z,2.53
2023-09-10T20:43:53.253Z,1.92
2023-09-10T20:46:21.287Z,2.38
2023-09-10T20:48:49.377Z,2.03
2023-09-10T20:51:29.811Z,2.30
2023-09-10T20:53:58.058Z,2.10
2023-09-10T20:56:26.412Z,2.05
2023-09-10T20:58:55.937Z,1.92
2023-09-10T21:01:26.288Z,2.05
2023-09-10T21:03:54.815Z,1.95
2023-09-10T21:06:23.331Z,2.08
2023-09-10T21:08:51.479Z,2.15
2023-09-10T21:11:19.624Z,2.35
2023-09-10T21:13:47.899Z,2.40
2023-09-10T21:16:15.980Z,2.45
2023-09-10T21:18:44.987Z,1.90
2023-09-10T21:21:17.312Z,2.65
2023-09-10T21:23:45.453Z,2.08
2023-09-10T21:26:13.542Z,2.00
2023-09-10T21:28:41.907Z,2.00
2023-09-10T21:31:11.870Z,2.30
2023-09-10T21:33:40.683Z,2.17
2023-09-10T21:36:11.940Z,2.03
2023-09-10T21:38:40.590Z,2.22
2023-09-10T21:41:09.494Z,1.90
2023-09-10T21:43:38.193Z,2.42
2023-09-10T21:46:07.294Z,2.08
2023-09-10T21:48:35.436Z,2.42
2023-09-10T21:51:05.227Z,2.30
2023-09-10T21:53:33.634Z,2.13
2023-09-10T21:56:02.280Z,1.92
2023-09-10T21:58:32.973Z,2.03
2023-09-10T22:01:01.637Z,2.10
2023-09-10T22:03:30.301Z,1.95
2023-09-10T22:05:59.358Z,2.67
2023-09-10T22:08:30.107Z,1.77
2023-09-10T22:11:05.234Z,2.40
2023-09-10T22:13:34.395Z,2.10
2023-09-10T22:16:02.523Z,2.80
2023-09-10T22:18:30.640Z,2.05
2023-09-10T22:20:58.661Z,2.00
2023-09-10T22:23:26.763Z,2.47
2023-09-10T22:25:55.129Z,2.75
2023-09-10T22:28:23.718Z,2.50
2023-09-10T22:30:52.013Z,2.78
2023-09-10T22:33:20.874Z,2.35
2023-09-10T22:35:48.967Z,2.50
2023-09-10T22:38:17.348Z,2.67
2023-09-10T22:40:45.776Z,3.40
2023-09-10T22:43:14.069Z,2.35
2023-09-10T22:45:42.135Z,2.85
2023-09-10T22:48:10.707Z,3.03
2023-09-10T22:50:39.110Z,2.70
2023-09-10T22:53:07.130Z,2.90
2023-09-10T22:55:35.477Z,3.15
2023-09-10T22:58:03.512Z,3.42
2023-09-10T23:00:32.688Z,3.47
2023-09-10T23:03:00.841Z,3.55
2023-09-10T23:05:29.251Z,3.42
2023-09-10T23:07:57.602Z,3.75
2023-09-10T23:10:26.170Z,4.47
2023-09-10T23:12:54.176Z,4.90
2023-09-10T23:15:23.535Z,5.55
2023-09-10T23:17:51.776Z,4.90
2023-09-10T23:20:20.291Z,5.50
2023-09-10T23:22:51.894Z,5.38
2023-09-10T23:25:20.195Z,6.32
2023-09-10T23:27:50.552Z,5.68
2023-09-10T23:30:19.444Z,6.47
2023-09-10T23:32:47.533Z,5.78
2023-09-10T23:35:15.721Z,5.43
2023-09-10T23:37:43.794Z,5.57
2023-09-10T23:40:12.128Z,5.82
2023-09-10T23:42:40.120Z,5.38
2023-09-10T23:45:09.761Z,6.55
2023-09-10T23:47:38.335Z,6.50
2023-09-10T23:50:06.892Z,6.40
2023-09-10T23:52:35.136Z,7.03
2023-09-10T23:55:03.172Z,6.55
2023-09-10T23:57:31.485Z,5.85
2023-09-10T23:59:59.495Z,6.05
